Terminal Aerodrome Forecast
Issued by NWS

Home | Current Version | Previous Version | Text Only | Print | Product List | Glossary On
Versions: 1 2 3 4 5 6 7 8 9 10 11 12 13 14 15 16 17 18 19 20 21 22 23 24
000
FTUS43 KGRR 282300
TAFJXN
TAF
KJXN 282340Z 2900/2924 11003KT P6SM BKN200
     FM291200 14006KT P6SM -SHRA OVC045
     FM291800 16010KT P6SM SCT035 BKN150=

USA.gov is the U.S. government's official web portal to all federal, state and local government web resources and services.